sensor_id;sensor_type;location;lat;lon;timestamp;noise_LAeq;noise_LA_min;noise_LA_max;noise_LA01;noise_LA95
69609;Laerm;56815;52.320;4.858;2024-02-21T00:00:02;32.03;30.47;37.42;;
69609;Laerm;56815;52.320;4.858;2024-02-21T00:00:13;31.78;30.14;35.99;;
69609;Laerm;56815;52.320;4.858;2024-02-21T00:00:23;34.48;29.98;47.85;;
69609;Laerm;56815;52.320;4.858;2024-02-21T00:00:33;31.77;30.04;35.08;;
69609;Laerm;56815;52.320;4.858;2024-02-21T00:00:44;31.67;30.04;34.81;;
69609;Laerm;56815;52.320;4.858;2024-02-21T00:00:54;31.62;30.33;35.68;;
69609;Laerm;56815;52.320;4.858;2024-02-21T00:01:04;31.71;29.88;33.35;;
69609;Laerm;56815;52.320;4.858;2024-02-21T00:01:15;31.81;30.29;34.48;;
69609;Laerm;56815;52.320;4.858;2024-02-21T00:01:26;32.69;31.00;41.34;;
69609;Laerm;56815;52.320;4.858;2024-02-21T00:01:36;32.80;31.00;35.92;;
69609;Laerm;56815;52.320;4.858;2024-02-21T00:01:47;31.94;29.88;33.96;;
69609;Laerm;56815;52.320;4.858;2024-02-21T00:01:57;31.49;29.86;34.32;;
69609;Laerm;56815;52.320;4.858;2024-02-21T00:02:07;32.00;30.36;42.32;;
69609;Laerm;56815;52.320;4.858;2024-02-21T00:02:17;32.02;30.08;34.80;;
69609;Laerm;56815;52.320;4.858;2024-02-21T00:02:28;32.29;30.85;34.08;;
69609;Laerm;56815;52.320;4.858;2024-02-21T00:02:38;32.73;30.83;35.10;;
69609;Laerm;56815;52.320;4.858;2024-02-21T00:02:48;34.46;31.49;38.65;;
69609;Laerm;56815;52.320;4.858;2024-02-21T00:02:59;33.73;31.32;44.90;;
69609;Laerm;56815;52.320;4.858;2024-02-21T00:03:12;32.17;30.29;38.42;;
69609;Laerm;56815;52.320;4.858;2024-02-21T00:03:22;32.12;29.99;33.97;;
69609;Laerm;56815;52.320;4.858;2024-02-21T00:03:32;33.16;31.10;42.31;;
69609;Laerm;56815;52.320;4.858;2024-02-21T00:03:43;32.56;30.55;39.11;;
69609;Laerm;56815;52.320;4.858;2024-02-21T00:03:53;31.63;29.86;38.48;;
69609;Laerm;56815;52.320;4.858;2024-02-21T00:04:03;31.62;29.78;38.38;;
69609;Laerm;56815;52.320;4.858;2024-02-21T00:04:14;33.40;30.58;41.12;;
69609;Laerm;56815;52.320;4.858;2024-02-21T00:04:24;37.37;32.62;43.11;;
69609;Laerm;56815;52.320;4.858;2024-02-21T00:04:34;36.41;32.72;50.58;;
69609;Laerm;56815;52.320;4.858;2024-02-21T00:04:45;32.81;30.47;37.34;;
69609;Laerm;56815;52.320;4.858;2024-02-21T00:04:55;32.01;30.21;39.93;;
69609;Laerm;56815;52.320;4.858;2024-02-21T00:05:06;31.52;29.36;35.47;;
69609;Laerm;56815;52.320;4.858;2024-02-21T00:05:16;31.48;29.69;35.16;;
69609;Laerm;56815;52.320;4.858;2024-02-21T00:05:26;31.56;30.08;37.17;;
69609;Laerm;56815;52.320;4.858;2024-02-21T00:05:36;31.65;29.81;34.26;;
69609;Laerm;56815;52.320;4.858;2024-02-21T00:05:47;31.55;29.46;36.36;;
69609;Laerm;56815;52.320;4.858;2024-02-21T00:05:57;31.75;30.27;34.70;;
69609;Laerm;56815;52.320;4.858;2024-02-21T00:06:07;31.52;30.22;33.78;;
69609;Laerm;56815;52.320;4.858;2024-02-21T00:06:18;31.81;30.53;33.29;;
69609;Laerm;56815;52.320;4.858;2024-02-21T00:06:28;32.21;30.44;35.00;;
69609;Laerm;56815;52.320;4.858;2024-02-21T00:06:38;32.02;30.03;36.05;;
69609;Laerm;56815;52.320;4.858;2024-02-21T00:06:48;32.74;30.26;39.30;;
69609;Laerm;56815;52.320;4.858;2024-02-21T00:06:59;32.33;30.74;35.85;;
69609;Laerm;56815;52.320;4.858;2024-02-21T00:07:09;32.23;30.32;36.07;;
69609;Laerm;56815;52.320;4.858;2024-02-21T00:07:19;32.08;30.26;36.42;;
69609;Laerm;56815;52.320;4.858;2024-02-21T00:07:30;31.91;30.12;36.65;;
69609;Laerm;56815;52.320;4.858;2024-02-21T00:07:40;32.62;30.79;35.11;;
69609;Laerm;56815;52.320;4.858;2024-02-21T00:07:50;33.06;30.62;37.74;;
69609;Laerm;56815;52.320;4.858;2024-02-21T00:08:02;33.31;31.17;35.72;;
69609;Laerm;56815;52.320;4.858;2024-02-21T00:08:13;33.37;31.29;35.34;;
69609;Laerm;56815;52.320;4.858;2024-02-21T00:08:23;33.14;30.77;36.05;;
69609;Laerm;56815;52.320;4.858;2024-02-21T00:08:33;32.39;30.68;35.25;;
69609;Laerm;56815;52.320;4.858;2024-02-21T00:08:44;32.23;30.56;34.61;;
69609;Laerm;56815;52.320;4.858;2024-02-21T00:08:54;32.59;30.65;35.43;;
69609;Laerm;56815;52.320;4.858;2024-02-21T00:09:04;33.16;31.40;34.93;;
69609;Laerm;56815;52.320;4.858;2024-02-21T00:09:14;32.78;31.25;35.31;;
69609;Laerm;56815;52.320;4.858;2024-02-21T00:09:25;32.96;31.34;35.16;;
69609;Laerm;56815;52.320;4.858;2024-02-21T00:09:35;32.61;30.57;35.64;;
69609;Laerm;56815;52.320;4.858;2024-02-21T00:09:48;32.47;30.23;34.48;;
69609;Laerm;56815;52.320;4.858;2024-02-21T00:09:59;32.17;30.03;44.57;;
69609;Laerm;56815;52.320;4.858;2024-02-21T00:10:09;32.29;30.21;34.20;;
69609;Laerm;56815;52.320;4.858;2024-02-21T00:10:19;32.69;30.94;36.28;;
69609;Laerm;56815;52.320;4.858;2024-02-21T00:10:29;32.69;30.69;35.09;;
69609;Laerm;56815;52.320;4.858;2024-02-21T00:10:44;32.26;30.22;35.33;;
69609;Laerm;56815;52.320;4.858;2024-02-21T00:10:55;31.99;29.94;34.36;;
69609;Laerm;56815;52.320;4.858;2024-02-21T00:11:05;31.98;30.28;34.69;;
69609;Laerm;56815;52.320;4.858;2024-02-21T00:11:15;32.24;30.48;35.07;;
69609;Laerm;56815;52.320;4.858;2024-02-21T00:11:26;31.91;30.29;34.38;;
69609;Laerm;56815;52.320;4.858;2024-02-21T00:11:36;31.82;30.28;34.38;;
69609;Laerm;56815;52.320;4.858;2024-02-21T00:11:46;31.65;29.38;34.19;;
69609;Laerm;56815;52.320;4.858;2024-02-21T00:11:57;31.75;30.04;34.08;;
69609;Laerm;56815;52.320;4.858;2024-02-21T00:12:09;31.83;29.88;37.65;;
69609;Laerm;56815;52.320;4.858;2024-02-21T00:12:19;31.82;30.12;34.57;;
69609;Laerm;56815;52.320;4.858;2024-02-21T00:12:30;31.67;30.33;33.26;;
69609;Laerm;56815;52.320;4.858;2024-02-21T00:12:40;32.65;30.24;34.80;;
69609;Laerm;56815;52.320;4.858;2024-02-21T00:12:51;33.33;31.04;35.92;;
69609;Laerm;56815;52.320;4.858;2024-02-21T00:13:01;32.93;30.72;36.11;;
69609;Laerm;56815;52.320;4.858;2024-02-21T00:13:11;32.68;30.66;38.58;;
69609;Laerm;56815;52.320;4.858;2024-02-21T00:13:21;32.33;30.19;33.92;;
69609;Laerm;56815;52.320;4.858;2024-02-21T00:13:32;33.02;31.40;34.98;;
69609;Laerm;56815;52.320;4.858;2024-02-21T00:13:42;33.13;31.00;34.88;;
69609;Laerm;56815;52.320;4.858;2024-02-21T00:13:52;32.95;30.94;36.97;;
69609;Laerm;56815;52.320;4.858;2024-02-21T00:14:03;34.07;31.11;48.68;;
69609;Laerm;56815;52.320;4.858;2024-02-21T00:14:13;32.65;30.91;34.38;;
69609;Laerm;56815;52.320;4.858;2024-02-21T00:14:23;33.59;31.22;37.54;;
69609;Laerm;56815;52.320;4.858;2024-02-21T00:14:33;33.91;31.74;37.13;;
69609;Laerm;56815;52.320;4.858;2024-02-21T00:14:44;34.03;32.11;36.68;;
69609;Laerm;56815;52.320;4.858;2024-02-21T00:14:54;37.28;33.49;42.76;;
69609;Laerm;56815;52.320;4.858;2024-02-21T00:15:04;41.41;34.79;45.92;;
69609;Laerm;56815;52.320;4.858;2024-02-21T00:15:16;41.11;35.61;47.68;;
69609;Laerm;56815;52.320;4.858;2024-02-21T00:15:27;36.57;33.17;40.93;;
69609;Laerm;56815;52.320;4.858;2024-02-21T00:15:37;33.49;31.26;35.83;;
69609;Laerm;56815;52.320;4.858;2024-02-21T00:15:47;32.92;31.05;35.56;;
69609;Laerm;56815;52.320;4.858;2024-02-21T00:15:59;33.02;31.08;37.38;;
69609;Laerm;56815;52.320;4.858;2024-02-21T00:16:10;33.07;31.50;35.32;;
69609;Laerm;56815;52.320;4.858;2024-02-21T00:16:21;32.73;31.01;35.19;;
69609;Laerm;56815;52.320;4.858;2024-02-21T00:16:31;37.09;31.01;57.26;;
69609;Laerm;56815;52.320;4.858;2024-02-21T00:16:41;52.59;31.51;69.87;;
69609;Laerm;56815;52.320;4.858;2024-02-21T00:16:52;42.21;31.10;60.21;;
69609;Laerm;56815;52.320;4.858;2024-02-21T00:17:02;32.36;30.68;34.55;;
69609;Laerm;56815;52.320;4.858;2024-02-21T00:17:12;33.49;31.06;40.57;;
69609;Laerm;56815;52.320;4.858;2024-02-21T00:17:22;33.84;30.96;42.13;;
69609;Laerm;56815;52.320;4.858;2024-02-21T00:17:33;32.73;31.30;34.54;;
69609;Laerm;56815;52.320;4.858;2024-02-21T00:17:43;33.10;30.83;38.37;;
69609;Laerm;56815;52.320;4.858;2024-02-21T00:17:54;33.40;31.15;37.36;;
69609;Laerm;56815;52.320;4.858;2024-02-21T00:18:04;35.97;31.25;44.87;;
69609;Laerm;56815;52.320;4.858;2024-02-21T00:18:15;35.68;31.86;43.25;;
69609;Laerm;56815;52.320;4.858;2024-02-21T00:18:25;32.78;30.40;40.90;;
69609;Laerm;56815;52.320;4.858;2024-02-21T00:18:35;33.33;30.67;44.83;;
69609;Laerm;56815;52.320;4.858;2024-02-21T00:18:46;33.66;31.67;37.33;;
69609;Laerm;56815;52.320;4.858;2024-02-21T00:18:56;32.63;30.86;37.94;;
69609;Laerm;56815;52.320;4.858;2024-02-21T00:19:06;32.36;30.84;34.63;;
69609;Laerm;56815;52.320;4.858;2024-02-21T00:19:16;32.59;30.44;34.57;;
69609;Laerm;56815;52.320;4.858;2024-02-21T00:19:27;33.25;31.50;35.15;;
69609;Laerm;56815;52.320;4.858;2024-02-21T00:19:37;33.32;31.34;35.15;;
69609;Laerm;56815;52.320;4.858;2024-02-21T00:19:47;32.80;31.21;34.17;;
69609;Laerm;56815;52.320;4.858;2024-02-21T00:19:57;32.20;30.44;35.47;;
69609;Laerm;56815;52.320;4.858;2024-02-21T00:20:08;32.63;30.52;38.97;;
69609;Laerm;56815;52.320;4.858;2024-02-21T00:20:18;32.45;30.32;36.13;;
69609;Laerm;56815;52.320;4.858;2024-02-21T00:20:29;39.40;30.70;57.43;;
69609;Laerm;56815;52.320;4.858;2024-02-21T00:20:40;32.87;30.70;37.15;;
69609;Laerm;56815;52.320;4.858;2024-02-21T00:20:50;32.31;29.89;34.97;;
69609;Laerm;56815;52.320;4.858;2024-02-21T00:21:00;32.38;30.43;35.05;;
69609;Laerm;56815;52.320;4.858;2024-02-21T00:21:11;32.42;30.44;35.73;;
69609;Laerm;56815;52.320;4.858;2024-02-21T00:21:28;32.49;30.23;36.50;;
69609;Laerm;56815;52.320;4.858;2024-02-21T00:21:38;32.23;30.51;34.89;;
69609;Laerm;56815;52.320;4.858;2024-02-21T00:21:49;32.41;30.50;36.85;;
69609;Laerm;56815;52.320;4.858;2024-02-21T00:21:59;61.02;30.82;79.69;;
69609;Laerm;56815;52.320;4.858;2024-02-21T00:22:09;41.99;30.43;59.57;;
69609;Laerm;56815;52.320;4.858;2024-02-21T00:22:19;32.01;30.62;33.57;;
69609;Laerm;56815;52.320;4.858;2024-02-21T00:22:30;31.93;30.03;37.93;;
69609;Laerm;56815;52.320;4.858;2024-02-21T00:22:41;31.75;30.01;34.07;;
69609;Laerm;56815;52.320;4.858;2024-02-21T00:22:51;32.81;30.87;35.19;;
69609;Laerm;56815;52.320;4.858;2024-02-21T00:23:02;33.89;32.13;36.46;;
69609;Laerm;56815;52.320;4.858;2024-02-21T00:23:12;34.44;31.72;36.89;;
69609;Laerm;56815;52.320;4.858;2024-02-21T00:23:22;34.20;31.35;48.39;;
69609;Laerm;56815;52.320;4.858;2024-02-21T00:23:32;33.48;31.13;39.13;;
69609;Laerm;56815;52.320;4.858;2024-02-21T00:23:45;33.46;31.01;49.61;;
69609;Laerm;56815;52.320;4.858;2024-02-21T00:23:56;32.44;30.34;37.10;;
69609;Laerm;56815;52.320;4.858;2024-02-21T00:24:06;32.21;30.24;34.27;;
69609;Laerm;56815;52.320;4.858;2024-02-21T00:24:16;32.00;30.33;34.04;;
69609;Laerm;56815;52.320;4.858;2024-02-21T00:24:27;31.79;30.31;34.13;;
69609;Laerm;56815;52.320;4.858;2024-02-21T00:24:37;31.52;30.12;33.47;;
69609;Laerm;56815;52.320;4.858;2024-02-21T00:24:47;31.94;29.67;47.03;;
69609;Laerm;56815;52.320;4.858;2024-02-21T00:24:58;32.37;30.27;38.64;;
69609;Laerm;56815;52.320;4.858;2024-02-21T00:25:08;31.90;30.11;35.25;;
69609;Laerm;56815;52.320;4.858;2024-02-21T00:25:19;32.33;30.03;36.52;;
69609;Laerm;56815;52.320;4.858;2024-02-21T00:25:29;31.93;30.41;34.31;;
69609;Laerm;56815;52.320;4.858;2024-02-21T00:25:39;33.05;30.99;35.02;;
69609;Laerm;56815;52.320;4.858;2024-02-21T00:25:50;33.23;31.53;35.37;;
69609;Laerm;56815;52.320;4.858;2024-02-21T00:26:00;32.07;30.46;34.66;;
69609;Laerm;56815;52.320;4.858;2024-02-21T00:26:11;31.35;29.77;34.48;;
69609;Laerm;56815;52.320;4.858;2024-02-21T00:26:21;31.12;29.33;32.89;;
69609;Laerm;56815;52.320;4.858;2024-02-21T00:26:31;31.33;29.96;33.12;;
69609;Laerm;56815;52.320;4.858;2024-02-21T00:26:42;31.32;29.86;33.82;;
69609;Laerm;56815;52.320;4.858;2024-02-21T00:26:53;31.08;29.81;32.88;;
69609;Laerm;56815;52.320;4.858;2024-02-21T00:27:03;31.02;29.24;33.80;;
69609;Laerm;56815;52.320;4.858;2024-02-21T00:27:14;30.93;29.51;32.90;;
69609;Laerm;56815;52.320;4.858;2024-02-21T00:27:24;31.17;29.72;33.18;;
69609;Laerm;56815;52.320;4.858;2024-02-21T00:27:34;31.61;29.98;33.94;;
69609;Laerm;56815;52.320;4.858;2024-02-21T00:27:44;31.15;29.36;37.71;;
69609;Laerm;56815;52.320;4.858;2024-02-21T00:27:55;31.24;29.76;33.91;;
69609;Laerm;56815;52.320;4.858;2024-02-21T00:28:05;31.28;29.67;34.31;;
69609;Laerm;56815;52.320;4.858;2024-02-21T00:28:16;31.50;29.68;33.86;;
69609;Laerm;56815;52.320;4.858;2024-02-21T00:28:26;31.43;29.63;33.24;;
69609;Laerm;56815;52.320;4.858;2024-02-21T00:28:37;31.21;29.60;34.01;;
69609;Laerm;56815;52.320;4.858;2024-02-21T00:28:47;31.53;29.31;39.65;;
69609;Laerm;56815;52.320;4.858;2024-02-21T00:28:57;31.10;29.54;36.53;;
69609;Laerm;56815;52.320;4.858;2024-02-21T00:29:07;31.18;29.33;41.54;;
69609;Laerm;56815;52.320;4.858;2024-02-21T00:29:18;31.08;29.32;33.32;;
69609;Laerm;56815;52.320;4.858;2024-02-21T00:29:28;31.09;29.50;33.94;;
69609;Laerm;56815;52.320;4.858;2024-02-21T00:29:38;31.19;29.56;38.19;;
69609;Laerm;56815;52.320;4.858;2024-02-21T00:29:49;31.24;29.42;38.01;;
69609;Laerm;56815;52.320;4.858;2024-02-21T00:29:59;31.18;29.64;33.14;;
69609;Laerm;56815;52.320;4.858;2024-02-21T00:30:10;31.60;29.95;34.48;;
69609;Laerm;56815;52.320;4.858;2024-02-21T00:30:20;31.70;29.69;45.05;;
69609;Laerm;56815;52.320;4.858;2024-02-21T00:30:31;34.72;29.78;46.19;;
69609;Laerm;56815;52.320;4.858;2024-02-21T00:30:41;31.43;29.67;33.77;;
69609;Laerm;56815;52.320;4.858;2024-02-21T00:30:51;31.32;29.99;35.33;;
69609;Laerm;56815;52.320;4.858;2024-02-21T00:31:03;31.52;30.19;33.96;;
69609;Laerm;56815;52.320;4.858;2024-02-21T00:31:13;31.23;29.81;36.09;;
69609;Laerm;56815;52.320;4.858;2024-02-21T00:31:24;31.00;29.55;33.56;;
69609;Laerm;56815;52.320;4.858;2024-02-21T00:31:34;31.38;29.79;35.85;;
69609;Laerm;56815;52.320;4.858;2024-02-21T00:31:44;31.80;30.06;44.18;;
69609;Laerm;56815;52.320;4.858;2024-02-21T00:31:55;31.26;29.65;33.13;;
69609;Laerm;56815;52.320;4.858;2024-02-21T00:32:05;31.14;29.54;33.20;;
69609;Laerm;56815;52.320;4.858;2024-02-21T00:32:15;31.36;29.57;33.78;;
69609;Laerm;56815;52.320;4.858;2024-02-21T00:32:25;31.35;29.55;35.03;;
69609;Laerm;56815;52.320;4.858;2024-02-21T00:32:36;31.17;29.67;33.69;;
69609;Laerm;56815;52.320;4.858;2024-02-21T00:32:46;31.35;29.39;34.05;;
69609;Laerm;56815;52.320;4.858;2024-02-21T00:32:56;31.91;30.00;34.11;;
69609;Laerm;56815;52.320;4.858;2024-02-21T00:33:07;32.01;30.32;34.93;;
69609;Laerm;56815;52.320;4.858;2024-02-21T00:33:17;31.12;29.45;33.55;;
69609;Laerm;56815;52.320;4.858;2024-02-21T00:33:27;31.94;30.09;37.18;;
69609;Laerm;56815;52.320;4.858;2024-02-21T00:33:38;32.36;30.68;34.79;;
69609;Laerm;56815;52.320;4.858;2024-02-21T00:33:48;31.42;30.09;34.42;;
69609;Laerm;56815;52.320;4.858;2024-02-21T00:33:58;31.16;29.77;33.19;;
69609;Laerm;56815;52.320;4.858;2024-02-21T00:34:08;31.20;29.85;35.62;;
69609;Laerm;56815;52.320;4.858;2024-02-21T00:34:19;31.20;29.75;35.49;;
69609;Laerm;56815;52.320;4.858;2024-02-21T00:34:29;31.35;29.92;33.25;;
69609;Laerm;56815;52.320;4.858;2024-02-21T00:34:39;31.23;29.72;33.90;;
69609;Laerm;56815;52.320;4.858;2024-02-21T00:34:50;31.13;29.21;32.83;;
69609;Laerm;56815;52.320;4.858;2024-02-21T00:35:00;31.28;29.48;35.47;;
69609;Laerm;56815;52.320;4.858;2024-02-21T00:35:11;30.94;29.40;35.53;;
69609;Laerm;56815;52.320;4.858;2024-02-21T00:35:22;31.07;29.61;33.26;;
69609;Laerm;56815;52.320;4.858;2024-02-21T00:35:32;31.00;29.28;37.84;;
69609;Laerm;56815;52.320;4.858;2024-02-21T00:35:43;30.81;29.55;33.08;;
69609;Laerm;56815;52.320;4.858;2024-02-21T00:35:53;30.70;29.21;35.68;;
69609;Laerm;56815;52.320;4.858;2024-02-21T00:36:03;30.70;28.82;33.32;;
69609;Laerm;56815;52.320;4.858;2024-02-21T00:36:14;31.20;29.57;37.21;;
69609;Laerm;56815;52.320;4.858;2024-02-21T00:36:25;31.24;29.34;34.17;;
69609;Laerm;56815;52.320;4.858;2024-02-21T00:36:35;31.03;29.77;34.01;;
69609;Laerm;56815;52.320;4.858;2024-02-21T00:36:45;31.39;29.67;35.80;;
69609;Laerm;56815;52.320;4.858;2024-02-21T00:36:56;31.17;29.50;39.24;;
69609;Laerm;56815;52.320;4.858;2024-02-21T00:37:06;30.87;29.66;32.83;;
69609;Laerm;56815;52.320;4.858;2024-02-21T00:37:16;30.87;29.51;33.69;;
69609;Laerm;56815;52.320;4.858;2024-02-21T00:37:27;31.50;29.72;33.06;;
69609;Laerm;56815;52.320;4.858;2024-02-21T00:37:37;31.83;30.47;33.94;;
69609;Laerm;56815;52.320;4.858;2024-02-21T00:37:47;31.39;29.26;33.77;;
69609;Laerm;56815;52.320;4.858;2024-02-21T00:37:58;31.21;29.66;36.04;;
69609;Laerm;56815;52.320;4.858;2024-02-21T00:38:09;31.58;29.97;41.05;;
69609;Laerm;56815;52.320;4.858;2024-02-21T00:38:19;31.10;29.50;33.58;;
69609;Laerm;56815;52.320;4.858;2024-02-21T00:38:30;31.15;29.19;36.54;;
69609;Laerm;56815;52.320;4.858;2024-02-21T00:38:41;31.19;29.55;34.10;;
69609;Laerm;56815;52.320;4.858;2024-02-21T00:38:51;30.92;29.52;35.17;;
69609;Laerm;56815;52.320;4.858;2024-02-21T00:39:01;31.44;29.99;33.61;;
69609;Laerm;56815;52.320;4.858;2024-02-21T00:39:12;31.26;29.76;32.71;;
69609;Laerm;56815;52.320;4.858;2024-02-21T00:39:22;31.41;30.04;36.15;;
69609;Laerm;56815;52.320;4.858;2024-02-21T00:39:32;31.05;29.71;33.17;;
69609;Laerm;56815;52.320;4.858;2024-02-21T00:39:42;30.87;29.32;34.31;;
69609;Laerm;56815;52.320;4.858;2024-02-21T00:39:55;30.90;29.62;33.24;;
69609;Laerm;56815;52.320;4.858;2024-02-21T00:40:06;31.07;29.33;34.96;;
69609;Laerm;56815;52.320;4.858;2024-02-21T00:40:16;31.06;28.98;37.75;;
69609;Laerm;56815;52.320;4.858;2024-02-21T00:40:30;31.45;29.41;37.04;;
69609;Laerm;56815;52.320;4.858;2024-02-21T00:40:40;31.69;30.03;34.67;;
69609;Laerm;56815;52.320;4.858;2024-02-21T00:40:50;35.84;30.87;41.14;;
69609;Laerm;56815;52.320;4.858;2024-02-21T00:41:00;36.32;33.32;39.13;;
69609;Laerm;56815;52.320;4.858;2024-02-21T00:41:11;31.94;29.96;34.97;;
69609;Laerm;56815;52.320;4.858;2024-02-21T00:41:21;32.68;30.33;36.13;;
69609;Laerm;56815;52.320;4.858;2024-02-21T00:41:31;32.72;31.27;36.72;;
69609;Laerm;56815;52.320;4.858;2024-02-21T00:41:42;32.56;30.83;35.12;;
69609;Laerm;56815;52.320;4.858;2024-02-21T00:41:52;34.09;32.05;44.52;;
69609;Laerm;56815;52.320;4.858;2024-02-21T00:42:02;32.73;30.71;35.79;;
69609;Laerm;56815;52.320;4.858;2024-02-21T00:42:13;31.84;29.94;34.89;;
69609;Laerm;56815;52.320;4.858;2024-02-21T00:42:23;32.26;29.96;36.68;;
69609;Laerm;56815;52.320;4.858;2024-02-21T00:42:33;32.63;30.97;35.91;;
69609;Laerm;56815;52.320;4.858;2024-02-21T00:42:43;34.34;30.42;42.02;;
69609;Laerm;56815;52.320;4.858;2024-02-21T00:42:54;36.06;30.75;47.02;;
69609;Laerm;56815;52.320;4.858;2024-02-21T00:43:04;31.84;30.29;33.46;;
69609;Laerm;56815;52.320;4.858;2024-02-21T00:43:14;31.99;30.04;34.21;;
69609;Laerm;56815;52.320;4.858;2024-02-21T00:43:25;31.52;29.97;33.69;;
69609;Laerm;56815;52.320;4.858;2024-02-21T00:43:35;31.29;29.72;33.77;;
69609;Laerm;56815;52.320;4.858;2024-02-21T00:43:45;30.99;29.58;33.52;;
69609;Laerm;56815;52.320;4.858;2024-02-21T00:43:55;31.12;29.25;33.77;;
69609;Laerm;56815;52.320;4.858;2024-02-21T00:44:06;31.31;29.34;33.60;;
69609;Laerm;56815;52.320;4.858;2024-02-21T00:44:16;31.82;29.76;34.20;;
69609;Laerm;56815;52.320;4.858;2024-02-21T00:44:26;31.58;29.73;39.49;;
69609;Laerm;56815;52.320;4.858;2024-02-21T00:44:37;31.55;29.83;34.16;;
69609;Laerm;56815;52.320;4.858;2024-02-21T00:44:47;32.86;30.74;35.32;;
69609;Laerm;56815;52.320;4.858;2024-02-21T00:44:57;31.41;29.17;34.84;;
69609;Laerm;56815;52.320;4.858;2024-02-21T00:45:08;30.94;29.63;34.11;;
69609;Laerm;56815;52.320;4.858;2024-02-21T00:45:18;31.19;29.72;34.22;;
69609;Laerm;56815;52.320;4.858;2024-02-21T00:45:29;31.76;29.77;38.35;;
69609;Laerm;56815;52.320;4.858;2024-02-21T00:45:39;31.96;29.77;36.89;;
69609;Laerm;56815;52.320;4.858;2024-02-21T00:45:50;31.24;29.51;33.41;;
69609;Laerm;56815;52.320;4.858;2024-02-21T00:46:00;31.37;30.07;35.33;;
69609;Laerm;56815;52.320;4.858;2024-02-21T00:46:10;31.05;29.42;35.78;;
69609;Laerm;56815;52.320;4.858;2024-02-21T00:46:20;31.39;29.58;33.19;;
69609;Laerm;56815;52.320;4.858;2024-02-21T00:46:31;30.98;28.91;32.94;;
69609;Laerm;56815;52.320;4.858;2024-02-21T00:46:41;30.92;29.18;34.75;;
69609;Laerm;56815;52.320;4.858;2024-02-21T00:46:51;31.21;29.53;32.91;;
69609;Laerm;56815;52.320;4.858;2024-02-21T00:47:02;31.57;29.87;34.20;;
69609;Laerm;56815;52.320;4.858;2024-02-21T00:47:12;32.45;30.36;41.23;;
69609;Laerm;56815;52.320;4.858;2024-02-21T00:47:23;31.38;29.70;33.80;;
69609;Laerm;56815;52.320;4.858;2024-02-21T00:47:33;31.37;29.68;37.72;;
69609;Laerm;56815;52.320;4.858;2024-02-21T00:47:43;31.96;29.49;44.34;;
69609;Laerm;56815;52.320;4.858;2024-02-21T00:47:54;31.06;29.21;35.90;;
69609;Laerm;56815;52.320;4.858;2024-02-21T00:48:04;31.28;29.23;36.95;;
69609;Laerm;56815;52.320;4.858;2024-02-21T00:48:15;31.01;28.83;33.35;;
69609;Laerm;56815;52.320;4.858;2024-02-21T00:48:25;30.99;28.78;32.68;;
69609;Laerm;56815;52.320;4.858;2024-02-21T00:48:35;32.10;29.73;36.11;;
69609;Laerm;56815;52.320;4.858;2024-02-21T00:48:46;32.28;30.31;37.56;;
69609;Laerm;56815;52.320;4.858;2024-02-21T00:48:56;32.54;29.92;34.80;;
69609;Laerm;56815;52.320;4.858;2024-02-21T00:49:06;32.35;30.27;38.27;;
69609;Laerm;56815;52.320;4.858;2024-02-21T00:49:17;31.67;29.67;36.08;;
69609;Laerm;56815;52.320;4.858;2024-02-21T00:49:27;31.33;29.45;39.80;;
69609;Laerm;56815;52.320;4.858;2024-02-21T00:49:37;31.21;29.30;36.98;;
69609;Laerm;56815;52.320;4.858;2024-02-21T00:49:49;31.18;29.52;34.63;;
69609;Laerm;56815;52.320;4.858;2024-02-21T00:49:59;31.24;29.63;36.99;;
69609;Laerm;56815;52.320;4.858;2024-02-21T00:50:09;31.22;29.74;34.57;;
69609;Laerm;56815;52.320;4.858;2024-02-21T00:50:20;31.16;29.19;34.26;;
69609;Laerm;56815;52.320;4.858;2024-02-21T00:50:30;31.31;29.57;36.53;;
69609;Laerm;56815;52.320;4.858;2024-02-21T00:50:40;31.01;29.39;32.98;;
69609;Laerm;56815;52.320;4.858;2024-02-21T00:50:51;30.79;29.10;32.57;;
69609;Laerm;56815;52.320;4.858;2024-02-21T00:51:02;30.93;29.06;33.00;;
69609;Laerm;56815;52.320;4.858;2024-02-21T00:51:12;30.62;29.36;34.26;;
69609;Laerm;56815;52.320;4.858;2024-02-21T00:51:22;30.64;28.93;32.41;;
69609;Laerm;56815;52.320;4.858;2024-02-21T00:51:32;30.88;29.53;34.63;;
69609;Laerm;56815;52.320;4.858;2024-02-21T00:51:43;30.81;29.50;36.75;;
69609;Laerm;56815;52.320;4.858;2024-02-21T00:51:53;30.88;29.40;32.25;;
69609;Laerm;56815;52.320;4.858;2024-02-21T00:52:03;31.09;29.57;35.05;;
69609;Laerm;56815;52.320;4.858;2024-02-21T00:52:14;33.48;30.47;37.74;;
69609;Laerm;56815;52.320;4.858;2024-02-21T00:52:24;33.29;31.57;35.34;;
69609;Laerm;56815;52.320;4.858;2024-02-21T00:52:34;32.41;30.12;35.65;;
69609;Laerm;56815;52.320;4.858;2024-02-21T00:52:44;32.30;30.16;35.89;;
69609;Laerm;56815;52.320;4.858;2024-02-21T00:52:55;31.82;29.79;36.00;;
69609;Laerm;56815;52.320;4.858;2024-02-21T00:53:05;31.66;30.35;35.82;;
69609;Laerm;56815;52.320;4.858;2024-02-21T00:53:15;31.57;30.30;34.85;;
69609;Laerm;56815;52.320;4.858;2024-02-21T00:53:26;32.58;30.24;35.61;;
69609;Laerm;56815;52.320;4.858;2024-02-21T00:53:36;31.80;29.50;47.08;;
69609;Laerm;56815;52.320;4.858;2024-02-21T00:53:48;31.82;29.71;36.86;;
69609;Laerm;56815;52.320;4.858;2024-02-21T00:53:58;32.42;30.03;46.23;;
69609;Laerm;56815;52.320;4.858;2024-02-21T00:54:08;31.63;29.55;39.74;;
69609;Laerm;56815;52.320;4.858;2024-02-21T00:54:19;31.55;29.74;37.52;;
69609;Laerm;56815;52.320;4.858;2024-02-21T00:54:29;30.81;29.32;36.57;;
69609;Laerm;56815;52.320;4.858;2024-02-21T00:54:39;30.61;29.38;33.40;;
69609;Laerm;56815;52.320;4.858;2024-02-21T00:54:49;30.93;29.35;32.71;;
69609;Laerm;56815;52.320;4.858;2024-02-21T00:55:00;30.81;29.52;35.31;;
69609;Laerm;56815;52.320;4.858;2024-02-21T00:55:10;30.76;29.34;33.59;;
69609;Laerm;56815;52.320;4.858;2024-02-21T00:55:20;30.82;29.09;34.81;;
69609;Laerm;56815;52.320;4.858;2024-02-21T00:55:31;39.15;31.87;44.80;;
69609;Laerm;56815;52.320;4.858;2024-02-21T00:55:41;37.02;32.49;43.28;;
69609;Laerm;56815;52.320;4.858;2024-02-21T00:55:53;33.90;31.31;36.92;;
69609;Laerm;56815;52.320;4.858;2024-02-21T00:56:04;34.06;31.56;45.71;;
69609;Laerm;56815;52.320;4.858;2024-02-21T00:56:16;34.04;30.85;48.10;;
69609;Laerm;56815;52.320;4.858;2024-02-21T00:56:26;35.95;32.27;40.22;;
69609;Laerm;56815;52.320;4.858;2024-02-21T00:56:36;33.43;31.09;38.10;;
69609;Laerm;56815;52.320;4.858;2024-02-21T00:56:46;32.19;30.47;36.61;;
69609;Laerm;56815;52.320;4.858;2024-02-21T00:56:57;32.26;30.45;35.35;;
69609;Laerm;56815;52.320;4.858;2024-02-21T00:57:07;31.49;29.53;34.61;;
69609;Laerm;56815;52.320;4.858;2024-02-21T00:57:17;31.81;29.62;39.24;;
69609;Laerm;56815;52.320;4.858;2024-02-21T00:57:27;31.94;29.66;44.30;;
69609;Laerm;56815;52.320;4.858;2024-02-21T00:57:38;31.31;29.70;34.80;;
69609;Laerm;56815;52.320;4.858;2024-02-21T00:57:48;31.45;30.19;32.99;;
69609;Laerm;56815;52.320;4.858;2024-02-21T00:57:58;31.57;29.94;33.44;;
69609;Laerm;56815;52.320;4.858;2024-02-21T00:58:08;32.23;30.69;38.91;;
69609;Laerm;56815;52.320;4.858;2024-02-21T00:58:19;32.26;30.62;34.56;;
69609;Laerm;56815;52.320;4.858;2024-02-21T00:58:30;31.72;29.82;33.37;;